sensor_id;sensor_type;location;lat;lon;timestamp;temperature;humidity
10083;DHT22;5080;48.528;8.078;2023-02-15T00:01:50;3.10;99.90
10083;DHT22;5080;48.528;8.078;2023-02-15T00:04:19;3.10;99.90
10083;DHT22;5080;48.528;8.078;2023-02-15T00:06:47;3.10;99.90
10083;DHT22;5080;48.528;8.078;2023-02-15T00:09:14;3.00;99.90
10083;DHT22;5080;48.528;8.078;2023-02-15T00:11:41;3.00;99.90
10083;DHT22;5080;48.528;8.078;2023-02-15T00:14:12;3.10;99.90
10083;DHT22;5080;48.528;8.078;2023-02-15T00:16:41;3.10;99.90
10083;DHT22;5080;48.528;8.078;2023-02-15T00:19:11;3.10;99.90
10083;DHT22;5080;48.528;8.078;2023-02-15T00:21:39;3.00;99.90
10083;DHT22;5080;48.528;8.078;2023-02-15T00:24:08;2.90;99.90
10083;DHT22;5080;48.528;8.078;2023-02-15T00:26:37;2.90;99.90
10083;DHT22;5080;48.528;8.078;2023-02-15T00:29:04;2.90;99.90
10083;DHT22;5080;48.528;8.078;2023-02-15T00:31:32;3.00;99.90
10083;DHT22;5080;48.528;8.078;2023-02-15T00:34:01;2.90;99.90
10083;DHT22;5080;48.528;8.078;2023-02-15T00:36:30;2.80;99.90
10083;DHT22;5080;48.528;8.078;2023-02-15T00:38:57;2.80;99.90
10083;DHT22;5080;48.528;8.078;2023-02-15T00:41:23;2.80;99.90
10083;DHT22;5080;48.528;8.078;2023-02-15T00:43:50;2.70;99.90
10083;DHT22;5080;48.528;8.078;2023-02-15T00:46:17;2.70;99.90
10083;DHT22;5080;48.528;8.078;2023-02-15T00:48:44;2.80;99.90
10083;DHT22;5080;48.528;8.078;2023-02-15T00:51:11;2.80;99.90
10083;DHT22;5080;48.528;8.078;2023-02-15T00:53:40;2.80;99.90
10083;DHT22;5080;48.528;8.078;2023-02-15T00:56:06;2.80;99.90
10083;DHT22;5080;48.528;8.078;2023-02-15T00:58:33;2.80;99.90
10083;DHT22;5080;48.528;8.078;2023-02-15T01:01:03;2.70;99.90
10083;DHT22;5080;48.528;8.078;2023-02-15T01:03:31;2.70;99.90
10083;DHT22;5080;48.528;8.078;2023-02-15T01:05:58;2.70;99.90
10083;DHT22;5080;48.528;8.078;2023-02-15T01:08:25;2.60;99.90
10083;DHT22;5080;48.528;8.078;2023-02-15T01:10:53;2.50;99.90
10083;DHT22;5080;48.528;8.078;2023-02-15T01:13:20;2.50;99.90
10083;DHT22;5080;48.528;8.078;2023-02-15T01:15:53;2.50;99.90
10083;DHT22;5080;48.528;8.078;2023-02-15T01:18:20;2.40;99.90
10083;DHT22;5080;48.528;8.078;2023-02-15T01:20:47;2.40;99.90
10083;DHT22;5080;48.528;8.078;2023-02-15T01:23:14;2.40;99.90
10083;DHT22;5080;48.528;8.078;2023-02-15T01:25:41;2.50;99.90
10083;DHT22;5080;48.528;8.078;2023-02-15T01:28:10;2.50;99.90
10083;DHT22;5080;48.528;8.078;2023-02-15T01:30:36;2.50;99.90
10083;DHT22;5080;48.528;8.078;2023-02-15T01:33:03;2.50;99.90
10083;DHT22;5080;48.528;8.078;2023-02-15T01:35:30;2.50;99.90
10083;DHT22;5080;48.528;8.078;2023-02-15T01:37:57;2.40;99.90
10083;DHT22;5080;48.528;8.078;2023-02-15T01:40:25;2.50;99.90
10083;DHT22;5080;48.528;8.078;2023-02-15T01:42:52;2.50;99.90
10083;DHT22;5080;48.528;8.078;2023-02-15T01:45:25;2.50;99.90
10083;DHT22;5080;48.528;8.078;2023-02-15T01:47:56;2.50;99.90
10083;DHT22;5080;48.528;8.078;2023-02-15T01:50:28;2.50;99.90
10083;DHT22;5080;48.528;8.078;2023-02-15T01:53:01;2.50;99.90
10083;DHT22;5080;48.528;8.078;2023-02-15T01:55:32;2.40;99.90
10083;DHT22;5080;48.528;8.078;2023-02-15T01:58:00;2.40;99.90
10083;DHT22;5080;48.528;8.078;2023-02-15T02:00:29;2.40;99.90
10083;DHT22;5080;48.528;8.078;2023-02-15T02:02:57;2.40;99.90
10083;DHT22;5080;48.528;8.078;2023-02-15T02:05:24;2.50;99.90
10083;DHT22;5080;48.528;8.078;2023-02-15T02:07:52;2.60;99.90
10083;DHT22;5080;48.528;8.078;2023-02-15T02:10:23;2.60;99.90
10083;DHT22;5080;48.528;8.078;2023-02-15T02:12:52;2.70;99.90
10083;DHT22;5080;48.528;8.078;2023-02-15T02:15:24;2.60;99.90
10083;DHT22;5080;48.528;8.078;2023-02-15T02:18:03;2.70;99.90
10083;DHT22;5080;48.528;8.078;2023-02-15T02:20:52;2.70;99.90
10083;DHT22;5080;48.528;8.078;2023-02-15T02:23:27;2.70;99.90
10083;DHT22;5080;48.528;8.078;2023-02-15T02:29:39;2.70;99.90
10083;DHT22;5080;48.528;8.078;2023-02-15T02:32:31;2.60;99.90
10083;DHT22;5080;48.528;8.078;2023-02-15T02:35:08;2.50;99.90
10083;DHT22;5080;48.528;8.078;2023-02-15T02:37:45;2.40;99.90
10083;DHT22;5080;48.528;8.078;2023-02-15T02:40:19;2.40;99.90
10083;DHT22;5080;48.528;8.078;2023-02-15T02:42:52;2.30;99.90
10083;DHT22;5080;48.528;8.078;2023-02-15T02:45:24;2.20;99.90
10083;DHT22;5080;48.528;8.078;2023-02-15T02:47:56;2.20;99.90
10083;DHT22;5080;48.528;8.078;2023-02-15T02:50:28;2.20;99.90
10083;DHT22;5080;48.528;8.078;2023-02-15T02:52:57;2.20;99.90
10083;DHT22;5080;48.528;8.078;2023-02-15T02:55:28;2.20;99.90
10083;DHT22;5080;48.528;8.078;2023-02-15T02:58:00;2.10;99.90
10083;DHT22;5080;48.528;8.078;2023-02-15T03:00:33;2.10;99.90
10083;DHT22;5080;48.528;8.078;2023-02-15T03:03:04;2.00;99.90
10083;DHT22;5080;48.528;8.078;2023-02-15T03:05:39;2.00;99.90
10083;DHT22;5080;48.528;8.078;2023-02-15T03:08:08;1.90;99.90
10083;DHT22;5080;48.528;8.078;2023-02-15T03:10:37;2.00;99.90
10083;DHT22;5080;48.528;8.078;2023-02-15T03:13:05;2.00;99.90
10083;DHT22;5080;48.528;8.078;2023-02-15T03:15:36;2.00;99.90
10083;DHT22;5080;48.528;8.078;2023-02-15T03:18:24;2.00;99.90
10083;DHT22;5080;48.528;8.078;2023-02-15T03:20:55;2.10;99.90
10083;DHT22;5080;48.528;8.078;2023-02-15T03:23:24;2.10;99.90
10083;DHT22;5080;48.528;8.078;2023-02-15T03:25:57;2.20;99.90
10083;DHT22;5080;48.528;8.078;2023-02-15T03:28:28;2.20;99.90
10083;DHT22;5080;48.528;8.078;2023-02-15T03:31:00;2.20;99.90
10083;DHT22;5080;48.528;8.078;2023-02-15T03:33:28;2.20;99.90
10083;DHT22;5080;48.528;8.078;2023-02-15T03:36:02;2.20;99.90
10083;DHT22;5080;48.528;8.078;2023-02-15T03:38:36;2.30;99.90
10083;DHT22;5080;48.528;8.078;2023-02-15T03:41:05;2.30;99.90
10083;DHT22;5080;48.528;8.078;2023-02-15T03:43:41;2.30;99.90
10083;DHT22;5080;48.528;8.078;2023-02-15T03:46:13;2.30;99.90
10083;DHT22;5080;48.528;8.078;2023-02-15T03:48:45;2.30;99.90
10083;DHT22;5080;48.528;8.078;2023-02-15T03:51:18;2.30;99.90
10083;DHT22;5080;48.528;8.078;2023-02-15T03:54:04;2.30;99.90
10083;DHT22;5080;48.528;8.078;2023-02-15T03:56:34;2.30;99.90
10083;DHT22;5080;48.528;8.078;2023-02-15T03:59:01;2.30;99.90
10083;DHT22;5080;48.528;8.078;2023-02-15T04:01:54;2.30;99.90
10083;DHT22;5080;48.528;8.078;2023-02-15T04:04:26;2.30;99.90
10083;DHT22;5080;48.528;8.078;2023-02-15T04:06:56;2.20;99.90
10083;DHT22;5080;48.528;8.078;2023-02-15T04:09:23;2.20;99.90
10083;DHT22;5080;48.528;8.078;2023-02-15T04:12:07;2.10;99.90
10083;DHT22;5080;48.528;8.078;2023-02-15T04:14:34;2.00;99.90
10083;DHT22;5080;48.528;8.078;2023-02-15T04:17:19;2.00;99.90
10083;DHT22;5080;48.528;8.078;2023-02-15T04:19:46;1.90;99.90
10083;DHT22;5080;48.528;8.078;2023-02-15T04:22:32;2.00;99.90
10083;DHT22;5080;48.528;8.078;2023-02-15T04:25:16;2.00;99.90
10083;DHT22;5080;48.528;8.078;2023-02-15T04:27:45;1.90;99.90
10083;DHT22;5080;48.528;8.078;2023-02-15T04:30:13;1.90;99.90
10083;DHT22;5080;48.528;8.078;2023-02-15T04:32:40;1.90;99.90
10083;DHT22;5080;48.528;8.078;2023-02-15T04:35:08;1.90;99.90
10083;DHT22;5080;48.528;8.078;2023-02-15T04:37:37;1.80;99.90
10083;DHT22;5080;48.528;8.078;2023-02-15T04:40:06;1.70;99.90
10083;DHT22;5080;48.528;8.078;2023-02-15T04:42:33;1.80;99.90
10083;DHT22;5080;48.528;8.078;2023-02-15T04:45:00;1.80;99.90
10083;DHT22;5080;48.528;8.078;2023-02-15T04:47:26;1.70;99.90
10083;DHT22;5080;48.528;8.078;2023-02-15T04:50:02;1.70;99.90
10083;DHT22;5080;48.528;8.078;2023-02-15T04:52:29;1.70;99.90
10083;DHT22;5080;48.528;8.078;2023-02-15T04:54:57;1.60;99.90
10083;DHT22;5080;48.528;8.078;2023-02-15T04:57:24;1.70;99.90
10083;DHT22;5080;48.528;8.078;2023-02-15T04:59:51;1.70;99.90
10083;DHT22;5080;48.528;8.078;2023-02-15T05:02:18;1.70;99.90
10083;DHT22;5080;48.528;8.078;2023-02-15T05:04:44;1.80;99.90
10083;DHT22;5080;48.528;8.078;2023-02-15T05:07:11;1.80;99.90
10083;DHT22;5080;48.528;8.078;2023-02-15T05:09:38;1.80;99.90
10083;DHT22;5080;48.528;8.078;2023-02-15T05:12:06;1.80;99.90
10083;DHT22;5080;48.528;8.078;2023-02-15T05:14:33;1.90;99.90
10083;DHT22;5080;48.528;8.078;2023-02-15T05:17:00;1.80;99.90
10083;DHT22;5080;48.528;8.078;2023-02-15T05:19:28;1.80;99.90
10083;DHT22;5080;48.528;8.078;2023-02-15T05:21:55;1.90;99.90
10083;DHT22;5080;48.528;8.078;2023-02-15T05:24:22;1.90;99.90
10083;DHT22;5080;48.528;8.078;2023-02-15T05:27:10;1.90;99.90
10083;DHT22;5080;48.528;8.078;2023-02-15T05:29:55;1.90;99.90
10083;DHT22;5080;48.528;8.078;2023-02-15T05:32:21;2.00;99.90
10083;DHT22;5080;48.528;8.078;2023-02-15T05:34:48;2.10;99.90
10083;DHT22;5080;48.528;8.078;2023-02-15T05:37:15;2.20;99.90
10083;DHT22;5080;48.528;8.078;2023-02-15T05:39:42;2.20;99.90
10083;DHT22;5080;48.528;8.078;2023-02-15T05:42:10;2.20;99.90
10083;DHT22;5080;48.528;8.078;2023-02-15T05:44:37;2.20;99.90
10083;DHT22;5080;48.528;8.078;2023-02-15T05:47:04;2.20;99.90
10083;DHT22;5080;48.528;8.078;2023-02-15T05:49:32;2.20;99.90
10083;DHT22;5080;48.528;8.078;2023-02-15T05:51:59;2.00;99.90
10083;DHT22;5080;48.528;8.078;2023-02-15T05:54:26;2.00;99.90
10083;DHT22;5080;48.528;8.078;2023-02-15T05:56:54;1.80;99.90
10083;DHT22;5080;48.528;8.078;2023-02-15T05:59:22;1.70;99.90
10083;DHT22;5080;48.528;8.078;2023-02-15T06:01:49;1.80;99.90
10083;DHT22;5080;48.528;8.078;2023-02-15T06:04:16;1.80;99.90
10083;DHT22;5080;48.528;8.078;2023-02-15T06:06:42;1.80;99.90
10083;DHT22;5080;48.528;8.078;2023-02-15T06:09:10;1.70;99.90
10083;DHT22;5080;48.528;8.078;2023-02-15T06:11:37;1.60;99.90
10083;DHT22;5080;48.528;8.078;2023-02-15T06:14:04;1.60;99.90
10083;DHT22;5080;48.528;8.078;2023-02-15T06:16:32;1.50;99.90
10083;DHT22;5080;48.528;8.078;2023-02-15T06:18:59;1.50;99.90
10083;DHT22;5080;48.528;8.078;2023-02-15T06:21:27;1.60;99.90
10083;DHT22;5080;48.528;8.078;2023-02-15T06:23:54;1.60;99.90
10083;DHT22;5080;48.528;8.078;2023-02-15T06:26:21;1.50;99.90
10083;DHT22;5080;48.528;8.078;2023-02-15T06:28:47;1.50;99.90
10083;DHT22;5080;48.528;8.078;2023-02-15T06:31:14;1.60;99.90
10083;DHT22;5080;48.528;8.078;2023-02-15T06:33:43;1.60;99.90
10083;DHT22;5080;48.528;8.078;2023-02-15T06:36:09;1.70;99.90
10083;DHT22;5080;48.528;8.078;2023-02-15T06:38:38;1.60;99.90
10083;DHT22;5080;48.528;8.078;2023-02-15T06:41:04;1.60;99.90
10083;DHT22;5080;48.528;8.078;2023-02-15T06:43:31;1.70;99.90
10083;DHT22;5080;48.528;8.078;2023-02-15T06:45:59;1.80;99.90
10083;DHT22;5080;48.528;8.078;2023-02-15T06:48:26;1.70;99.90
10083;DHT22;5080;48.528;8.078;2023-02-15T06:50:54;1.70;99.90
10083;DHT22;5080;48.528;8.078;2023-02-15T06:53:21;1.70;99.90
10083;DHT22;5080;48.528;8.078;2023-02-15T06:55:48;1.60;99.90
10083;DHT22;5080;48.528;8.078;2023-02-15T06:58:15;1.60;99.90
10083;DHT22;5080;48.528;8.078;2023-02-15T07:00:41;1.60;99.90
10083;DHT22;5080;48.528;8.078;2023-02-15T07:03:08;1.60;99.90
10083;DHT22;5080;48.528;8.078;2023-02-15T07:05:35;1.60;99.90
10083;DHT22;5080;48.528;8.078;2023-02-15T07:08:03;1.70;99.90
10083;DHT22;5080;48.528;8.078;2023-02-15T07:10:30;1.70;99.90
10083;DHT22;5080;48.528;8.078;2023-02-15T07:12:57;1.70;99.90
10083;DHT22;5080;48.528;8.078;2023-02-15T07:15:23;1.70;99.90
10083;DHT22;5080;48.528;8.078;2023-02-15T07:17:50;1.70;99.90
10083;DHT22;5080;48.528;8.078;2023-02-15T07:20:18;1.70;99.90
10083;DHT22;5080;48.528;8.078;2023-02-15T07:22:45;1.70;99.90
10083;DHT22;5080;48.528;8.078;2023-02-15T07:25:14;1.70;99.90
10083;DHT22;5080;48.528;8.078;2023-02-15T07:27:41;1.80;99.90
10083;DHT22;5080;48.528;8.078;2023-02-15T07:30:11;1.80;99.90
10083;DHT22;5080;48.528;8.078;2023-02-15T07:32:38;1.80;99.90
10083;DHT22;5080;48.528;8.078;2023-02-15T07:35:26;1.90;99.90
10083;DHT22;5080;48.528;8.078;2023-02-15T07:37:53;1.80;99.90
10083;DHT22;5080;48.528;8.078;2023-02-15T07:40:21;1.80;99.90
10083;DHT22;5080;48.528;8.078;2023-02-15T07:42:51;1.80;99.90
10083;DHT22;5080;48.528;8.078;2023-02-15T07:45:20;1.90;99.90
10083;DHT22;5080;48.528;8.078;2023-02-15T07:47:47;1.90;99.90
10083;DHT22;5080;48.528;8.078;2023-02-15T07:50:14;1.90;99.90
10083;DHT22;5080;48.528;8.078;2023-02-15T07:52:40;2.00;99.90
10083;DHT22;5080;48.528;8.078;2023-02-15T07:55:07;2.10;99.90
10083;DHT22;5080;48.528;8.078;2023-02-15T07:57:42;2.10;99.90
10083;DHT22;5080;48.528;8.078;2023-02-15T08:00:10;2.00;99.90
10083;DHT22;5080;48.528;8.078;2023-02-15T08:02:38;2.00;99.90
10083;DHT22;5080;48.528;8.078;2023-02-15T08:05:05;1.90;99.90
10083;DHT22;5080;48.528;8.078;2023-02-15T08:07:32;1.90;99.90
10083;DHT22;5080;48.528;8.078;2023-02-15T08:09:59;1.90;99.90
10083;DHT22;5080;48.528;8.078;2023-02-15T08:12:26;1.90;99.90
10083;DHT22;5080;48.528;8.078;2023-02-15T08:14:54;1.90;99.90
10083;DHT22;5080;48.528;8.078;2023-02-15T08:17:21;1.90;99.90
10083;DHT22;5080;48.528;8.078;2023-02-15T08:19:49;2.00;99.90
10083;DHT22;5080;48.528;8.078;2023-02-15T08:22:15;2.00;99.90
10083;DHT22;5080;48.528;8.078;2023-02-15T08:24:42;2.20;99.90
10083;DHT22;5080;48.528;8.078;2023-02-15T08:27:10;2.10;99.90
10083;DHT22;5080;48.528;8.078;2023-02-15T08:29:37;2.20;99.90
10083;DHT22;5080;48.528;8.078;2023-02-15T08:32:08;2.30;99.90
10083;DHT22;5080;48.528;8.078;2023-02-15T08:34:36;2.30;99.90
10083;DHT22;5080;48.528;8.078;2023-02-15T08:37:04;2.30;99.90
10083;DHT22;5080;48.528;8.078;2023-02-15T08:39:31;2.10;99.90
10083;DHT22;5080;48.528;8.078;2023-02-15T08:41:58;2.10;99.90
10083;DHT22;5080;48.528;8.078;2023-02-15T08:44:25;1.90;99.90
10083;DHT22;5080;48.528;8.078;2023-02-15T08:46:52;1.90;99.90
10083;DHT22;5080;48.528;8.078;2023-02-15T08:49:21;2.00;99.90
10083;DHT22;5080;48.528;8.078;2023-02-15T08:51:49;2.00;99.90
10083;DHT22;5080;48.528;8.078;2023-02-15T08:54:17;2.30;99.90
10083;DHT22;5080;48.528;8.078;2023-02-15T08:56:45;2.30;99.90
10083;DHT22;5080;48.528;8.078;2023-02-15T08:59:13;2.00;99.90
10083;DHT22;5080;48.528;8.078;2023-02-15T09:01:40;1.90;99.90
10083;DHT22;5080;48.528;8.078;2023-02-15T09:04:08;1.80;99.90
10083;DHT22;5080;48.528;8.078;2023-02-15T09:06:37;1.70;99.90
10083;DHT22;5080;48.528;8.078;2023-02-15T09:09:04;1.70;99.90
10083;DHT22;5080;48.528;8.078;2023-02-15T09:11:34;1.80;99.90
10083;DHT22;5080;48.528;8.078;2023-02-15T09:14:04;1.80;99.90
10083;DHT22;5080;48.528;8.078;2023-02-15T09:16:33;1.70;99.90
10083;DHT22;5080;48.528;8.078;2023-02-15T09:19:00;1.80;99.90
10083;DHT22;5080;48.528;8.078;2023-02-15T09:21:28;2.00;99.90
10083;DHT22;5080;48.528;8.078;2023-02-15T09:23:58;2.10;99.90
10083;DHT22;5080;48.528;8.078;2023-02-15T09:26:27;2.20;99.90
10083;DHT22;5080;48.528;8.078;2023-02-15T09:28:56;2.20;99.90
10083;DHT22;5080;48.528;8.078;2023-02-15T09:31:26;2.30;99.90
10083;DHT22;5080;48.528;8.078;2023-02-15T09:33:53;2.70;99.90
10083;DHT22;5080;48.528;8.078;2023-02-15T09:36:22;2.50;99.90
10083;DHT22;5080;48.528;8.078;2023-02-15T09:38:55;2.50;99.90
10083;DHT22;5080;48.528;8.078;2023-02-15T09:41:35;2.40;99.90
10083;DHT22;5080;48.528;8.078;2023-02-15T09:44:13;2.30;99.90
10083;DHT22;5080;48.528;8.078;2023-02-15T09:46:55;2.20;99.90
10083;DHT22;5080;48.528;8.078;2023-02-15T09:49:34;2.20;99.90
10083;DHT22;5080;48.528;8.078;2023-02-15T09:52:17;2.30;99.90
10083;DHT22;5080;48.528;8.078;2023-02-15T09:54:59;2.10;99.90
10083;DHT22;5080;48.528;8.078;2023-02-15T09:57:35;2.00;99.90
10083;DHT22;5080;48.528;8.078;2023-02-15T10:00:09;1.90;99.90
10083;DHT22;5080;48.528;8.078;2023-02-15T10:02:53;1.90;99.90
10083;DHT22;5080;48.528;8.078;2023-02-15T10:05:29;1.90;99.90
10083;DHT22;5080;48.528;8.078;2023-02-15T10:08:21;1.90;99.90
10083;DHT22;5080;48.528;8.078;2023-02-15T10:10:57;1.80;99.90
10083;DHT22;5080;48.528;8.078;2023-02-15T10:13:54;1.90;99.90
10083;DHT22;5080;48.528;8.078;2023-02-15T10:16:34;2.20;99.90
10083;DHT22;5080;48.528;8.078;2023-02-15T10:19:10;2.30;99.90
10083;DHT22;5080;48.528;8.078;2023-02-15T10:21:51;2.30;99.90
10083;DHT22;5080;48.528;8.078;2023-02-15T10:27:18;2.20;99.90
10083;DHT22;5080;48.528;8.078;2023-02-15T10:29:54;2.30;99.90
10083;DHT22;5080;48.528;8.078;2023-02-15T10:32:24;2.50;99.90
10083;DHT22;5080;48.528;8.078;2023-02-15T10:34:52;2.70;99.90
10083;DHT22;5080;48.528;8.078;2023-02-15T10:37:44;2.70;99.90
10083;DHT22;5080;48.528;8.078;2023-02-15T10:40:18;2.80;99.90
10083;DHT22;5080;48.528;8.078;2023-02-15T10:45:49;2.90;99.90
10083;DHT22;5080;48.528;8.078;2023-02-15T10:48:45;2.80;99.90
10083;DHT22;5080;48.528;8.078;2023-02-15T10:51:19;2.80;99.90
10083;DHT22;5080;48.528;8.078;2023-02-15T10:54:01;2.80;99.90
10083;DHT22;5080;48.528;8.078;2023-02-15T10:56:34;2.90;99.90
10083;DHT22;5080;48.528;8.078;2023-02-15T10:59:15;2.90;99.90
10083;DHT22;5080;48.528;8.078;2023-02-15T11:01:51;3.00;99.90
10083;DHT22;5080;48.528;8.078;2023-02-15T11:04:41;3.00;99.90
10083;DHT22;5080;48.528;8.078;2023-02-15T11:07:16;3.20;99.90
10083;DHT22;5080;48.528;8.078;2023-02-15T11:09:47;3.30;99.90
10083;DHT22;5080;48.528;8.078;2023-02-15T11:12:20;3.30;99.90
10083;DHT22;5080;48.528;8.078;2023-02-15T11:14:52;3.30;99.90
10083;DHT22;5080;48.528;8.078;2023-02-15T11:17:25;3.30;99.90
10083;DHT22;5080;48.528;8.078;2023-02-15T11:20:02;3.50;99.90
10083;DHT22;5080;48.528;8.078;2023-02-15T11:22:32;3.60;99.90
10083;DHT22;5080;48.528;8.078;2023-02-15T11:25:01;3.70;99.90
10083;DHT22;5080;48.528;8.078;2023-02-15T11:27:31;3.80;99.90
10083;DHT22;5080;48.528;8.078;2023-02-15T11:30:01;3.90;99.90
10083;DHT22;5080;48.528;8.078;2023-02-15T11:32:32;4.00;99.90
10083;DHT22;5080;48.528;8.078;2023-02-15T11:35:02;4.00;99.90
10083;DHT22;5080;48.528;8.078;2023-02-15T11:37:38;4.10;99.90
10083;DHT22;5080;48.528;8.078;2023-02-15T11:40:17;3.80;99.90
10083;DHT22;5080;48.528;8.078;2023-02-15T11:42:47;4.00;99.90
10083;DHT22;5080;48.528;8.078;2023-02-15T11:45:21;4.00;99.90
10083;DHT22;5080;48.528;8.078;2023-02-15T11:47:50;3.90;99.90
10083;DHT22;5080;48.528;8.078;2023-02-15T11:50:22;3.90;99.90
10083;DHT22;5080;48.528;8.078;2023-02-15T11:52:49;3.80;99.90
10083;DHT22;5080;48.528;8.078;2023-02-15T11:55:20;3.90;99.90
10083;DHT22;5080;48.528;8.078;2023-02-15T11:57:53;3.80;99.90
10083;DHT22;5080;48.528;8.078;2023-02-15T12:00:29;3.90;99.90
10083;DHT22;5080;48.528;8.078;2023-02-15T12:03:07;4.00;99.90
10083;DHT22;5080;48.528;8.078;2023-02-15T12:05:37;4.00;99.90
10083;DHT22;5080;48.528;8.078;2023-02-15T12:08:14;3.80;99.90
10083;DHT22;5080;48.528;8.078;2023-02-15T12:10:55;3.70;99.90
10083;DHT22;5080;48.528;8.078;2023-02-15T12:13:23;3.70;99.90
10083;DHT22;5080;48.528;8.078;2023-02-15T12:15:53;3.80;99.90
10083;DHT22;5080;48.528;8.078;2023-02-15T12:18:35;3.80;99.90
10083;DHT22;5080;48.528;8.078;2023-02-15T12:21:07;3.90;99.90
10083;DHT22;5080;48.528;8.078;2023-02-15T12:23:42;3.90;99.90
10083;DHT22;5080;48.528;8.078;2023-02-15T12:26:10;4.10;99.90
10083;DHT22;5080;48.528;8.078;2023-02-15T12:28:40;4.30;99.90
10083;DHT22;5080;48.528;8.078;2023-02-15T12:31:10;4.30;99.90
10083;DHT22;5080;48.528;8.078;2023-02-15T12:33:47;4.40;99.90
10083;DHT22;5080;48.528;8.078;2023-02-15T12:36:17;4.40;99.90
10083;DHT22;5080;48.528;8.078;2023-02-15T12:39:03;4.40;99.90
10083;DHT22;5080;48.528;8.078;2023-02-15T12:41:30;4.30;99.90
10083;DHT22;5080;48.528;8.078;2023-02-15T12:44:04;4.30;99.90
10083;DHT22;5080;48.528;8.078;2023-02-15T12:46:31;4.30;99.90
10083;DHT22;5080;48.528;8.078;2023-02-15T12:49:16;4.20;99.90
10083;DHT22;5080;48.528;8.078;2023-02-15T12:51:48;3.90;99.90
10083;DHT22;5080;48.528;8.078;2023-02-15T12:54:36;3.80;99.90
10083;DHT22;5080;48.528;8.078;2023-02-15T12:57:26;4.00;99.90
10083;DHT22;5080;48.528;8.078;2023-02-15T12:59:55;4.20;99.90
10083;DHT22;5080;48.528;8.078;2023-02-15T13:02:28;4.20;99.90
10083;DHT22;5080;48.528;8.078;2023-02-15T13:05:03;4.20;99.90
10083;DHT22;5080;48.528;8.078;2023-02-15T13:07:31;4.40;99.90
10083;DHT22;5080;48.528;8.078;2023-02-15T13:09:58;4.40;99.90
10083;DHT22;5080;48.528;8.078;2023-02-15T13:12:28;4.50;99.90
10083;DHT22;5080;48.528;8.078;2023-02-15T13:14:57;4.60;99.90
10083;DHT22;5080;48.528;8.078;2023-02-15T13:17:26;4.80;99.90
10083;DHT22;5080;48.528;8.078;2023-02-15T13:19:59;4.60;99.90
10083;DHT22;5080;48.528;8.078;2023-02-15T13:22:33;4.40;99.90
10083;DHT22;5080;48.528;8.078;2023-02-15T13:25:05;4.40;99.90
10083;DHT22;5080;48.528;8.078;2023-02-15T13:27:38;4.40;99.90
10083;DHT22;5080;48.528;8.078;2023-02-15T13:30:17;4.40;99.90
10083;DHT22;5080;48.528;8.078;2023-02-15T13:32:48;4.50;99.90
10083;DHT22;5080;48.528;8.078;2023-02-15T13:35:18;4.40;99.90
10083;DHT22;5080;48.528;8.078;2023-02-15T13:37:58;4.30;99.90
10083;DHT22;5080;48.528;8.078;2023-02-15T13:40:31;4.40;99.90
10083;DHT22;5080;48.528;8.078;2023-02-15T13:43:03;4.40;99.90
10083;DHT22;5080;48.528;8.078;2023-02-15T13:45:40;4.40;99.90
10083;DHT22;5080;48.528;8.078;2023-02-15T13:48:16;4.50;99.90
10083;DHT22;5080;48.528;8.078;2023-02-15T13:50:58;4.50;99.90
10083;DHT22;5080;48.528;8.078;2023-02-15T13:53:48;4.50;99.90
10083;DHT22;5080;48.528;8.078;2023-02-15T13:56:26;4.50;99.90
10083;DHT22;5080;48.528;8.078;2023-02-15T14:02:21;4.60;99.90
10083;DHT22;5080;48.528;8.078;2023-02-15T14:05:22;4.40;99.90
10083;DHT22;5080;48.528;8.078;2023-02-15T14:07:56;4.30;99.90
10083;DHT22;5080;48.528;8.078;2023-02-15T14:10:38;4.10;99.90
10083;DHT22;5080;48.528;8.078;2023-02-15T14:13:43;4.00;99.90
10083;DHT22;5080;48.528;8.078;2023-02-15T14:16:17;4.00;99.90
10083;DHT22;5080;48.528;8.078;2023-02-15T14:18:50;4.20;99.90
10083;DHT22;5080;48.528;8.078;2023-02-15T14:21:24;4.20;99.90
10083;DHT22;5080;48.528;8.078;2023-02-15T14:24:08;4.40;99.90
10083;DHT22;5080;48.528;8.078;2023-02-15T14:26:46;4.60;99.90
10083;DHT22;5080;48.528;8.078;2023-02-15T14:29:20;4.70;99.90
10083;DHT22;5080;48.528;8.078;2023-02-15T14:31:53;4.70;99.90
10083;DHT22;5080;48.528;8.078;2023-02-15T14:34:24;4.90;99.90
10083;DHT22;5080;48.528;8.078;2023-02-15T14:36:52;4.80;99.90
10083;DHT22;5080;48.528;8.078;2023-02-15T14:39:31;4.90;99.90
10083;DHT22;5080;48.528;8.078;2023-02-15T14:42:21;4.90;99.90
10083;DHT22;5080;48.528;8.078;2023-02-15T14:44:54;5.00;99.90
10083;DHT22;5080;48.528;8.078;2023-02-15T14:47:28;5.00;99.90
10083;DHT22;5080;48.528;8.078;2023-02-15T14:49:59;4.90;99.90
10083;DHT22;5080;48.528;8.078;2023-02-15T14:52:25;4.80;99.90
10083;DHT22;5080;48.528;8.078;2023-02-15T14:54:58;4.60;99.90
10083;DHT22;5080;48.528;8.078;2023-02-15T14:57:31;4.60;99.90
10083;DHT22;5080;48.528;8.078;2023-02-15T15:00:00;4.60;99.90
10083;DHT22;5080;48.528;8.078;2023-02-15T15:02:43;4.70;99.90
10083;DHT22;5080;48.528;8.078;2023-02-15T15:05:18;4.70;99.90
10083;DHT22;5080;48.528;8.078;2023-02-15T15:07:47;4.60;99.90
10083;DHT22;5080;48.528;8.078;2023-02-15T15:10:35;4.60;99.90
10083;DHT22;5080;48.528;8.078;2023-02-15T15:13:36;4.60;99.90
10083;DHT22;5080;48.528;8.078;2023-02-15T15:16:24;4.60;99.90
10083;DHT22;5080;48.528;8.078;2023-02-15T15:18:52;4.70;99.90
10083;DHT22;5080;48.528;8.078;2023-02-15T15:21:56;4.70;99.90
10083;DHT22;5080;48.528;8.078;2023-02-15T15:24:48;4.80;99.90
10083;DHT22;5080;48.528;8.078;2023-02-15T15:27:39;4.80;99.90
10083;DHT22;5080;48.528;8.078;2023-02-15T15:34:10;4.90;99.90
10083;DHT22;5080;48.528;8.078;2023-02-15T15:43:24;4.80;99.90
10083;DHT22;5080;48.528;8.078;2023-02-15T15:46:10;4.90;99.90
10083;DHT22;5080;48.528;8.078;2023-02-15T15:48:41;4.90;99.90
10083;DHT22;5080;48.528;8.078;2023-02-15T15:51:12;4.90;99.90
10083;DHT22;5080;48.528;8.078;2023-02-15T15:53:44;4.90;99.90
10083;DHT22;5080;48.528;8.078;2023-02-15T15:56:17;4.90;99.90
10083;DHT22;5080;48.528;8.078;2023-02-15T15:58:50;4.90;99.90
10083;DHT22;5080;48.528;8.078;2023-02-15T16:01:24;5.00;99.90
10083;DHT22;5080;48.528;8.078;2023-02-15T16:03:54;5.00;99.90
10083;DHT22;5080;48.528;8.078;2023-02-15T16:06:29;5.00;99.90
10083;DHT22;5080;48.528;8.078;2023-02-15T16:08:56;4.90;99.90
10083;DHT22;5080;48.528;8.078;2023-02-15T16:11:25;4.90;99.90
10083;DHT22;5080;48.528;8.078;2023-02-15T16:13:55;4.90;99.90
10083;DHT22;5080;48.528;8.078;2023-02-15T16:16:24;4.70;99.90
10083;DHT22;5080;48.528;8.078;2023-02-15T16:18:54;4.60;99.90
10083;DHT22;5080;48.528;8.078;2023-02-15T16:21:26;4.60;99.90
10083;DHT22;5080;48.528;8.078;2023-02-15T16:24:13;4.40;99.90
10083;DHT22;5080;48.528;8.078;2023-02-15T16:26:54;4.30;99.90
10083;DHT22;5080;48.528;8.078;2023-02-15T16:29:32;4.20;99.90
10083;DHT22;5080;48.528;8.078;2023-02-15T16:32:00;4.10;99.90
10083;DHT22;5080;48.528;8.078;2023-02-15T16:34:27;4.00;99.90
10083;DHT22;5080;48.528;8.078;2023-02-15T16:37:13;3.90;99.90
10083;DHT22;5080;48.528;8.078;2023-02-15T16:39:41;3.90;99.90
10083;DHT22;5080;48.528;8.078;2023-02-15T16:42:09;3.80;99.90
10083;DHT22;5080;48.528;8.078;2023-02-15T16:44:39;3.80;99.90
10083;DHT22;5080;48.528;8.078;2023-02-15T16:47:13;3.70;99.90
10083;DHT22;5080;48.528;8.078;2023-02-15T16:49:45;3.90;99.90
10083;DHT22;5080;48.528;8.078;2023-02-15T16:52:18;3.70;99.90
10083;DHT22;5080;48.528;8.078;2023-02-15T16:54:46;3.60;99.90
10083;DHT22;5080;48.528;8.078;2023-02-15T16:57:17;3.50;99.90